Aérodrome :
LOGIN :

S'inscrire | Disclaimer

   EN    FR    IT 

 










Légende :    VFR   VFR Marginal   IFR   IFR Intensif   IFR Très Intensif
Visi : 
Plafond : 
>= 8 km
>= 3000ft
5 à 8 km
1000 à 3000 ft
1500m à 5 km
500 à 1000 ft
800 à 1500m
200 à 500 ft
< 800m
< 200 ft
Symboles :   Orages  Brouillard  Fortes neiges  Fortes précipitations  Vent > 20 kt
SIGMETs :   Divers  Orages  Givrage  Turbulence  Onde Orograph.  Cendres Volcan.






- Altitude de l'aérodrome : 70 ft
- Code IATA : LEI


LEAM - Almeria

DERNIER METAR :
  • 260930Z 07013KT 040V100 CAVOK 19/11 Q1009

METARs EXPIRÉS :
  • 260900Z 06016KT 030V090 CAVOK 19/11 Q1009
  • 260830Z 05015KT 010V080 CAVOK 19/10 Q1009
  • 260800Z 05017KT 010V080 9999 FEW015 18/10 Q1009
  • 260730Z 05016KT 020V080 9999 FEW015 18/10 Q1009
  • 260700Z 04013KT 010V070 9999 FEW015 18/09 Q1009
  • 260630Z 03015G25KT 360V060 9999 FEW015 18/10 Q1009

TAF AMD TAF LEAM
Valide du 26 à 09h jusqu'au 27 à 09h UTC


260912Z 2609/2709 05015KT 9999 FEW015 SCT030 TX20/2613Z TN11/2706Z
BECMG 2610/2612 22010KT
BECMG 2622/2624 34005KT
PROB40
TEMPO 2617/2709 4000 SHRA FEW030CB
PROB40
TEMPO 2621/2703 22015G25KT 2000 TSRA SCT020CB



MET'MAP, la Météo Aéronautique d'un coup d'oeil ! - Copyright ORBIFLY Décembre 2007 - Disclaimer

ORBIFLY MET'MAP TEAM :

Programmation & Développement : Alexandra Zaïnal
Sur une idée originale de : Baudouin d'Aumeries
Assistance à la programmation : Marc-Olivier Méhu
Soutien technique & logistique : Manuel Goepfert

Contact : metmap@orbifly.com




SOURCES & CREDITS :

   NOAA